Time;durP1;ratioP1;P1;durP2;ratioP2;P2;SDS_P1;SDS_P2;PMS_P1;PMS_P2;Temp;Humidity;BMP_temperature;BMP_pressure;BME280_temperature;BME280_humidity;BME280_pressure;Samples;Min_cycle;Max_cycle;Signal;HPM_P1;HPM_P2
2021/12/15 00:00:52;;;;;;;;;;;2.20;99.90;;;;;;5054852;28;20029;-88
2021/12/15 00:03:19;;;;;;;;;;;2.30;99.90;;;;;;5055444;28;19905;-88
2021/12/15 00:05:46;;;;;;;;;;;2.20;99.90;;;;;;5073361;28;19911;-88
2021/12/15 00:08:12;;;;;;;;;;;2.30;99.90;;;;;;5055738;28;20284;-89
2021/12/15 00:10:38;;;;;;;;;;;2.20;99.90;;;;;;5073352;28;19908;-88
2021/12/15 00:13:04;;;;;;;;;;;2.10;99.90;;;;;;5073485;28;20363;-87
2021/12/15 00:15:30;;;;;;;;;;;2.20;99.90;;;;;;5057828;28;20260;-86
2021/12/15 00:17:57;;;;;;;;;;;2.20;99.90;;;;;;5076975;28;19917;-91
2021/12/15 00:20:23;;;;;;;;;;;2.20;99.90;;;;;;5058982;28;19973;-87
2021/12/15 00:22:52;;;;;;;;;;;2.30;99.90;;;;;;5059170;28;19909;-87
2021/12/15 00:25:23;;;;;;;;;;;2.30;99.90;;;;;;5058818;28;19909;-89
2021/12/15 00:27:48;;;;;;;;;;;2.30;99.90;;;;;;5058774;28;19905;-89
2021/12/15 00:30:14;;;;;;;;;;;2.40;99.90;;;;;;5058092;28;20279;-88
2021/12/15 00:32:40;;;;;;;;;;;2.40;99.90;;;;;;5075286;28;20267;-88
2021/12/15 00:35:06;;;;;;;;;;;2.40;99.90;;;;;;5058727;28;19908;-87
2021/12/15 00:37:32;;;;;;;;;;;2.40;99.90;;;;;;5058622;28;19908;-87
2021/12/15 00:39:57;;;;;;;;;;;2.40;99.90;;;;;;5058527;28;19986;-90
2021/12/15 00:42:23;;;;;;;;;;;2.50;99.90;;;;;;5058657;28;19904;-89
2021/12/15 00:44:49;;;;;;;;;;;2.40;99.90;;;;;;5058793;28;19912;-88
2021/12/15 00:47:14;;;;;;;;;;;2.40;99.90;;;;;;5076430;28;20390;-90
2021/12/15 00:49:40;;;;;;;;;;;2.40;99.90;;;;;;5058750;28;19912;-91
2021/12/15 00:52:06;;;;;;;;;;;2.30;99.90;;;;;;5058660;28;19931;-89
2021/12/15 00:54:33;;;;;;;;;;;2.10;99.90;;;;;;5058522;28;19912;-88
2021/12/15 00:56:59;;;;;;;;;;;2.10;99.90;;;;;;5076511;28;19958;-89
2021/12/15 00:59:26;;;;;;;;;;;2.20;99.90;;;;;;5076579;28;20302;-88
2021/12/15 01:01:52;;;;;;;;;;;2.20;99.90;;;;;;5054326;28;19921;-88
2021/12/15 01:04:19;;;;;;;;;;;2.30;99.90;;;;;;5054767;28;19912;-90
2021/12/15 01:06:46;;;;;;;;;;;2.40;99.90;;;;;;5038385;28;19936;-86
2021/12/15 01:09:16;;;;;;;;;;;2.50;99.90;;;;;;5054617;28;20286;-89
2021/12/15 01:19:57;;;;;;;;;;;2.30;99.90;;;;;;5056383;28;19962;-87
2021/12/15 01:22:31;;;;;;;;;;;2.10;99.90;;;;;;5038067;28;19908;-89
2021/12/15 01:24:59;;;;;;;;;;;2.20;99.90;;;;;;5054169;28;19909;-90
2021/12/15 01:27:25;;;;;;;;;;;2.30;99.90;;;;;;5071803;28;20368;-87
2021/12/15 01:29:51;;;;;;;;;;;2.50;99.90;;;;;;5054554;28;20000;-88
2021/12/15 01:32:16;;;;;;;;;;;2.50;99.90;;;;;;5053732;28;20490;-88
2021/12/15 01:34:42;;;;;;;;;;;2.50;99.90;;;;;;5037761;28;19958;-89
2021/12/15 01:37:08;;;;;;;;;;;2.30;99.90;;;;;;5054786;28;19931;-88
2021/12/15 01:39:34;;;;;;;;;;;2.50;99.90;;;;;;5054190;28;19913;-88
2021/12/15 01:42:01;;;;;;;;;;;2.60;99.90;;;;;;5038928;28;20375;-89
2021/12/15 01:46:55;;;;;;;;;;;2.70;99.90;;;;;;5065125;28;19917;-88
2021/12/15 01:49:37;;;;;;;;;;;2.60;99.90;;;;;;5045883;28;19912;-88
2021/12/15 01:52:14;;;;;;;;;;;2.50;99.90;;;;;;5056631;28;19931;-87
2021/12/15 01:54:41;;;;;;;;;;;2.50;99.90;;;;;;5057090;28;19928;-88
2021/12/15 01:57:08;;;;;;;;;;;2.40;99.90;;;;;;5055141;28;19909;-88
2021/12/15 01:59:34;;;;;;;;;;;2.40;99.90;;;;;;5055193;28;19905;-89
2021/12/15 02:02:00;;;;;;;;;;;2.50;99.90;;;;;;5053850;28;19996;-88
2021/12/15 02:04:26;;;;;;;;;;;2.60;99.90;;;;;;5054324;28;20419;-88
2021/12/15 02:06:51;;;;;;;;;;;2.40;99.90;;;;;;5054093;28;19947;-87
2021/12/15 02:09:31;;;;;;;;;;;2.50;99.90;;;;;;5055059;28;19963;-88
2021/12/15 02:11:57;;;;;;;;;;;2.70;99.90;;;;;;5053727;28;20427;-87
2021/12/15 02:14:22;;;;;;;;;;;2.70;99.90;;;;;;5053830;28;19942;-90
2021/12/15 02:16:48;;;;;;;;;;;2.90;99.90;;;;;;5053494;28;19940;-87
2021/12/15 02:19:13;;;;;;;;;;;2.90;99.90;;;;;;5033719;28;19928;-89
2021/12/15 02:21:39;;;;;;;;;;;2.80;99.90;;;;;;5033825;28;19920;-91
2021/12/15 02:24:04;;;;;;;;;;;2.70;99.90;;;;;;5052081;28;19909;-88
2021/12/15 02:26:34;;;;;;;;;;;2.50;99.90;;;;;;5053417;28;19909;-87
2021/12/15 02:29:01;;;;;;;;;;;2.60;99.90;;;;;;5054629;28;20415;-87
2021/12/15 02:34:44;;;;;;;;;;;2.60;99.90;;;;;;5054949;28;19919;-88
2021/12/15 02:39:44;;;;;;;;;;;2.80;99.90;;;;;;5034227;28;19910;-88
2021/12/15 02:42:09;;;;;;;;;;;2.70;99.90;;;;;;5052765;28;19994;-89
2021/12/15 02:44:35;;;;;;;;;;;2.50;99.90;;;;;;5054545;28;20006;-88
2021/12/15 02:47:00;;;;;;;;;;;2.50;99.90;;;;;;5036748;28;19908;-86
2021/12/15 02:49:27;;;;;;;;;;;2.50;99.90;;;;;;5053098;28;20344;-90
2021/12/15 02:51:53;;;;;;;;;;;2.40;99.90;;;;;;5052974;28;19940;-87
2021/12/15 02:54:20;;;;;;;;;;;2.40;99.90;;;;;;5052820;28;19991;-88
2021/12/15 02:56:46;;;;;;;;;;;2.50;99.90;;;;;;5053306;28;19909;-88
2021/12/15 02:59:14;;;;;;;;;;;2.60;99.90;;;;;;5052986;28;19959;-90
2021/12/15 03:04:38;;;;;;;;;;;2.90;99.90;;;;;;5074367;28;19926;-90
2021/12/15 03:07:11;;;;;;;;;;;3.00;99.90;;;;;;5055967;28;19919;-89
2021/12/15 03:17:41;;;;;;;;;;;2.70;99.90;;;;;;5074277;28;19912;-89
2021/12/15 03:20:08;;;;;;;;;;;2.60;99.90;;;;;;5069159;28;20279;-87
2021/12/15 03:22:33;;;;;;;;;;;2.60;99.90;;;;;;5054034;28;19916;-87
2021/12/15 03:24:59;;;;;;;;;;;2.60;99.90;;;;;;5035987;28;19908;-89
2021/12/15 03:33:15;;;;;;;;;;;2.70;99.90;;;;;;5053705;28;19911;-88
2021/12/15 03:33:43;;;;;;;;;;;2.90;99.90;;;;;;5038985;28;19952;-88
2021/12/15 03:35:48;;;;;;;;;;;2.60;99.90;;;;;;5045582;28;19905;-90
2021/12/15 03:38:14;;;;;;;;;;;2.50;99.90;;;;;;5035958;28;20009;-88
2021/12/15 03:40:42;;;;;;;;;;;2.60;99.90;;;;;;5035907;28;19960;-86
2021/12/15 03:43:09;;;;;;;;;;;2.40;99.90;;;;;;5035918;28;19955;-89
2021/12/15 03:45:37;;;;;;;;;;;2.50;99.90;;;;;;5035898;28;19904;-88
2021/12/15 03:48:06;;;;;;;;;;;2.40;99.90;;;;;;5041005;28;20007;-89
2021/12/15 03:50:32;;;;;;;;;;;2.40;99.90;;;;;;5076478;28;19919;-88
2021/12/15 03:52:57;;;;;;;;;;;2.50;99.90;;;;;;5077587;28;19908;-90
2021/12/15 03:55:25;;;;;;;;;;;2.40;99.90;;;;;;5059637;28;19908;-86
2021/12/15 03:57:51;;;;;;;;;;;2.30;99.90;;;;;;5060098;28;19908;-88
2021/12/15 04:00:17;;;;;;;;;;;2.40;99.90;;;;;;5042403;28;19916;-91
2021/12/15 04:02:44;;;;;;;;;;;2.50;99.90;;;;;;5062679;28;19920;-88
2021/12/15 04:05:12;;;;;;;;;;;2.50;99.90;;;;;;5081614;28;19909;-89
2021/12/15 04:07:37;;;;;;;;;;;2.50;99.90;;;;;;5049304;28;19909;-88
2021/12/15 04:10:08;;;;;;;;;;;2.40;99.90;;;;;;5029820;28;20360;-89
2021/12/15 04:12:33;;;;;;;;;;;2.50;99.90;;;;;;5041177;28;19904;-89
2021/12/15 04:15:19;;;;;;;;;;;2.50;99.90;;;;;;5041263;28;19911;-88
2021/12/15 04:17:45;;;;;;;;;;;2.40;99.90;;;;;;5075818;28;19953;-88
2021/12/15 04:20:12;;;;;;;;;;;2.60;99.90;;;;;;5089247;28;19905;-89
2021/12/15 04:22:38;;;;;;;;;;;2.60;99.90;;;;;;5071363;28;19975;-88
2021/12/15 04:25:05;;;;;;;;;;;2.60;99.90;;;;;;5071714;28;19905;-88
2021/12/15 04:27:31;;;;;;;;;;;2.60;99.90;;;;;;5063021;28;19912;-89
2021/12/15 04:29:56;;;;;;;;;;;2.50;99.90;;;;;;5059427;28;20297;-90
2021/12/15 04:32:26;;;;;;;;;;;2.50;99.90;;;;;;5058850;28;19954;-89
2021/12/15 04:34:51;;;;;;;;;;;2.30;99.90;;;;;;5077020;28;19911;-89
2021/12/15 04:37:17;;;;;;;;;;;2.20;99.90;;;;;;5058627;28;19953;-87
2021/12/15 04:39:42;;;;;;;;;;;2.40;99.90;;;;;;5058850;28;20389;-86
2021/12/15 04:42:08;;;;;;;;;;;2.40;99.90;;;;;;5058614;28;19911;-88
2021/12/15 04:44:35;;;;;;;;;;;2.60;99.90;;;;;;5058640;28;19908;-91
2021/12/15 04:47:05;;;;;;;;;;;2.70;99.90;;;;;;5058487;28;20348;-88
2021/12/15 04:49:33;;;;;;;;;;;2.70;99.90;;;;;;5058587;28;19908;-89
2021/12/15 04:51:59;;;;;;;;;;;2.80;99.90;;;;;;5058819;28;19905;-86
2021/12/15 04:54:25;;;;;;;;;;;2.60;99.90;;;;;;5059085;28;19978;-89
2021/12/15 04:56:51;;;;;;;;;;;2.60;99.90;;;;;;5058822;28;19905;-91
2021/12/15 04:59:17;;;;;;;;;;;2.50;99.90;;;;;;5059027;28;20031;-88
2021/12/15 05:01:43;;;;;;;;;;;2.60;99.90;;;;;;5057122;28;19920;-88
2021/12/15 05:04:09;;;;;;;;;;;2.70;99.90;;;;;;5058452;28;19953;-88
2021/12/15 05:06:34;;;;;;;;;;;2.80;99.90;;;;;;5058461;28;19912;-89
2021/12/15 05:09:00;;;;;;;;;;;2.80;99.90;;;;;;5076140;28;19915;-89
2021/12/15 05:11:26;;;;;;;;;;;2.90;99.90;;;;;;5058187;28;19994;-88
2021/12/15 05:13:52;;;;;;;;;;;2.80;99.90;;;;;;5058136;28;19912;-88
2021/12/15 05:16:17;;;;;;;;;;;2.90;99.90;;;;;;5058360;28;20263;-88
2021/12/15 05:18:43;;;;;;;;;;;2.60;99.90;;;;;;5076093;28;19911;-89
2021/12/15 05:21:10;;;;;;;;;;;2.50;99.90;;;;;;5075993;28;19904;-89
2021/12/15 05:23:36;;;;;;;;;;;2.80;99.90;;;;;;5058086;28;20029;-89
2021/12/15 05:26:02;;;;;;;;;;;2.80;99.90;;;;;;5074685;28;20023;-89
2021/12/15 05:28:28;;;;;;;;;;;2.90;99.90;;;;;;5075843;28;19904;-88
2021/12/15 05:30:54;;;;;;;;;;;2.80;99.90;;;;;;5056991;28;19922;-88
2021/12/15 05:33:19;;;;;;;;;;;3.00;99.90;;;;;;5074664;28;19905;-86
2021/12/15 05:35:45;;;;;;;;;;;3.00;99.90;;;;;;5058084;28;19962;-87
2021/12/15 05:38:10;;;;;;;;;;;2.80;99.90;;;;;;5075498;28;20342;-88
2021/12/15 05:40:36;;;;;;;;;;;2.60;99.90;;;;;;5057881;28;20271;-88
2021/12/15 05:43:03;;;;;;;;;;;2.50;99.90;;;;;;5057183;28;19995;-87
2021/12/15 05:45:31;;;;;;;;;;;2.40;99.90;;;;;;5064215;28;20089;-87
2021/12/15 05:47:57;;;;;;;;;;;2.60;99.90;;;;;;5057846;28;19908;-86
2021/12/15 05:50:23;;;;;;;;;;;2.80;99.90;;;;;;5057391;28;19912;-89
2021/12/15 05:52:50;;;;;;;;;;;3.00;99.90;;;;;;5057210;28;19958;-88
2021/12/15 05:55:17;;;;;;;;;;;3.10;99.90;;;;;;5075022;28;19908;-90
2021/12/15 05:57:43;;;;;;;;;;;3.00;99.90;;;;;;5073535;28;19939;-91
2021/12/15 06:00:13;;;;;;;;;;;3.10;99.90;;;;;;5073742;28;19947;-88
2021/12/15 06:02:39;;;;;;;;;;;3.10;99.90;;;;;;5073062;28;19920;-88
2021/12/15 06:05:05;;;;;;;;;;;2.70;99.90;;;;;;5075127;28;20336;-87
2021/12/15 06:07:30;;;;;;;;;;;2.60;99.90;;;;;;5057026;28;20344;-88
2021/12/15 06:09:56;;;;;;;;;;;2.50;99.90;;;;;;5042050;28;19917;-88
2021/12/15 06:12:22;;;;;;;;;;;2.60;99.90;;;;;;5073886;28;19909;-87
2021/12/15 06:14:47;;;;;;;;;;;2.70;99.90;;;;;;5056846;28;19997;-87
2021/12/15 06:17:13;;;;;;;;;;;2.70;99.90;;;;;;5072594;28;19912;-87
2021/12/15 06:19:39;;;;;;;;;;;2.80;99.90;;;;;;5073124;28;19904;-88
2021/12/15 06:22:06;;;;;;;;;;;2.60;99.90;;;;;;5076507;28;19908;-88
2021/12/15 06:24:31;;;;;;;;;;;2.80;99.90;;;;;;5080440;28;19992;-88
2021/12/15 06:27:03;;;;;;;;;;;2.80;99.90;;;;;;5082990;28;19912;-88
2021/12/15 06:29:29;;;;;;;;;;;2.70;99.90;;;;;;5062148;28;20098;-88
2021/12/15 06:31:55;;;;;;;;;;;2.70;99.90;;;;;;5040079;28;20046;-87
2021/12/15 06:34:21;;;;;;;;;;;2.80;99.90;;;;;;5074453;28;19944;-88
2021/12/15 06:36:46;;;;;;;;;;;2.90;99.90;;;;;;5056568;28;20351;-87
2021/12/15 06:39:12;;;;;;;;;;;2.90;99.90;;;;;;5056539;28;19904;-89
2021/12/15 06:41:38;;;;;;;;;;;2.90;99.90;;;;;;5056189;28;19915;-88
2021/12/15 06:44:03;;;;;;;;;;;3.20;99.90;;;;;;5074087;28;19995;-89
2021/12/15 06:57:32;;;;;;;;;;;2.90;99.90;;;;;;5094674;28;19912;-86
2021/12/15 06:59:58;;;;;;;;;;;2.90;99.90;;;;;;5076334;28;20274;-88
2021/12/15 07:02:24;;;;;;;;;;;2.90;99.90;;;;;;5072198;28;19920;-89
2021/12/15 07:04:49;;;;;;;;;;;3.10;99.90;;;;;;5072660;28;19909;-89
2021/12/15 07:07:15;;;;;;;;;;;2.90;99.90;;;;;;5072603;28;19934;-86
2021/12/15 07:09:41;;;;;;;;;;;2.70;99.90;;;;;;5072586;28;19912;-89
2021/12/15 07:12:07;;;;;;;;;;;2.60;99.90;;;;;;5055307;28;20407;-88
2021/12/15 07:14:33;;;;;;;;;;;2.50;99.90;;;;;;5035871;28;20371;-88
2021/12/15 07:16:59;;;;;;;;;;;2.50;99.90;;;;;;5051455;28;19908;-88
2021/12/15 07:22:06;;;;;;;;;;;2.50;99.90;;;;;;5074249;28;19904;-90
2021/12/15 07:24:33;;;;;;;;;;;2.50;99.90;;;;;;5074025;28;20323;-90
2021/12/15 07:26:59;;;;;;;;;;;2.40;99.90;;;;;;5073928;28;19904;-89
2021/12/15 07:29:25;;;;;;;;;;;2.40;99.90;;;;;;5072393;28;20245;-90
2021/12/15 07:31:51;;;;;;;;;;;2.50;99.90;;;;;;5073289;28;19909;-87
2021/12/15 07:34:16;;;;;;;;;;;2.70;99.90;;;;;;5072339;28;19954;-90
2021/12/15 07:36:42;;;;;;;;;;;2.70;99.90;;;;;;5073706;28;20007;-87
2021/12/15 07:39:10;;;;;;;;;;;2.80;99.90;;;;;;5072259;28;19912;-88
2021/12/15 07:41:42;;;;;;;;;;;2.80;99.90;;;;;;5063613;28;19983;-88
2021/12/15 07:44:07;;;;;;;;;;;2.70;99.90;;;;;;5052282;28;19917;-87
2021/12/15 07:46:34;;;;;;;;;;;2.70;99.90;;;;;;5053743;28;19998;-87
2021/12/15 07:48:59;;;;;;;;;;;2.80;99.90;;;;;;5054050;28;19912;-87
2021/12/15 07:51:25;;;;;;;;;;;2.90;99.90;;;;;;5042722;28;19913;-89
2021/12/15 07:53:50;;;;;;;;;;;2.90;99.90;;;;;;5043135;28;19928;-89
2021/12/15 07:56:17;;;;;;;;;;;2.80;99.90;;;;;;5023322;28;19908;-87
2021/12/15 07:58:43;;;;;;;;;;;2.80;99.90;;;;;;5035433;28;20269;-89
2021/12/15 08:01:09;;;;;;;;;;;2.90;99.90;;;;;;5033033;28;19921;-89
2021/12/15 08:03:36;;;;;;;;;;;3.10;99.90;;;;;;5035344;28;19905;-90
2021/12/15 08:06:02;;;;;;;;;;;3.10;99.90;;;;;;5033587;28;19979;-90
2021/12/15 08:08:28;;;;;;;;;;;3.00;99.90;;;;;;5034360;28;19905;-89
2021/12/15 08:10:56;;;;;;;;;;;3.10;99.90;;;;;;5017041;28;20425;-86
2021/12/15 08:13:30;;;;;;;;;;;3.30;99.90;;;;;;5032945;28;20000;-87
2021/12/15 08:15:56;;;;;;;;;;;3.40;99.90;;;;;;5032206;28;20263;-92
2021/12/15 08:18:22;;;;;;;;;;;3.50;99.90;;;;;;5042169;28;20419;-89
2021/12/15 08:20:48;;;;;;;;;;;3.20;99.90;;;;;;5051903;28;20329;-86
2021/12/15 08:23:13;;;;;;;;;;;3.20;99.90;;;;;;5051754;28;19913;-86
2021/12/15 08:25:40;;;;;;;;;;;3.30;99.90;;;;;;5051867;28;19904;-88
2021/12/15 08:28:07;;;;;;;;;;;3.30;99.90;;;;;;5045397;28;19948;-89
2021/12/15 08:30:33;;;;;;;;;;;3.50;99.90;;;;;;5039531;28;19923;-87
2021/12/15 08:33:01;;;;;;;;;;;3.60;99.90;;;;;;5018250;28;19913;-89
2021/12/15 08:35:29;;;;;;;;;;;3.50;99.90;;;;;;5033475;28;19909;-88
2021/12/15 08:37:55;;;;;;;;;;;3.50;99.90;;;;;;5056726;28;19958;-89
2021/12/15 08:40:21;;;;;;;;;;;3.40;99.90;;;;;;5035756;28;20465;-86
2021/12/15 08:42:47;;;;;;;;;;;3.20;99.90;;;;;;5044830;28;20023;-86
2021/12/15 08:45:13;;;;;;;;;;;3.10;99.90;;;;;;5053600;28;19905;-87
2021/12/15 08:47:39;;;;;;;;;;;3.20;99.90;;;;;;5062019;28;19913;-89
2021/12/15 08:50:07;;;;;;;;;;;3.30;99.90;;;;;;5053490;28;19999;-87
2021/12/15 08:52:33;;;;;;;;;;;3.40;99.90;;;;;;5019573;28;20270;-88
2021/12/15 08:54:59;;;;;;;;;;;3.50;99.90;;;;;;5036041;28;19905;-86
2021/12/15 08:57:24;;;;;;;;;;;3.70;99.90;;;;;;5037530;28;19905;-89
2021/12/15 08:59:50;;;;;;;;;;;3.80;99.90;;;;;;5057053;28;20267;-87
2021/12/15 09:02:16;;;;;;;;;;;3.70;99.90;;;;;;5084396;28;20311;-87
2021/12/15 09:04:41;;;;;;;;;;;3.60;99.90;;;;;;5041729;28;19908;-89
2021/12/15 09:07:07;;;;;;;;;;;3.50;99.90;;;;;;5058050;28;19915;-88
2021/12/15 09:09:33;;;;;;;;;;;3.70;99.90;;;;;;5057697;28;20375;-89
2021/12/15 09:11:58;;;;;;;;;;;3.90;99.90;;;;;;5058262;28;19911;-86
2021/12/15 09:14:24;;;;;;;;;;;4.00;99.90;;;;;;5076070;28;19904;-87
2021/12/15 09:16:52;;;;;;;;;;;4.00;99.90;;;;;;5040985;28;19908;-87
2021/12/15 09:19:18;;;;;;;;;;;4.00;99.90;;;;;;5039154;28;20336;-87
2021/12/15 09:21:44;;;;;;;;;;;3.80;99.90;;;;;;5053027;28;19908;-87
2021/12/15 09:24:10;;;;;;;;;;;3.80;99.90;;;;;;5037752;28;19912;-86
2021/12/15 09:26:36;;;;;;;;;;;3.60;99.90;;;;;;5055792;28;19908;-86
2021/12/15 09:29:03;;;;;;;;;;;3.40;99.90;;;;;;5054695;28;20249;-86
2021/12/15 09:31:28;;;;;;;;;;;3.50;99.90;;;;;;5053709;28;20003;-87
2021/12/15 09:33:54;;;;;;;;;;;3.60;99.90;;;;;;5054254;28;19952;-87
2021/12/15 09:36:20;;;;;;;;;;;3.70;99.90;;;;;;5054138;28;19967;-88
2021/12/15 09:38:47;;;;;;;;;;;3.80;99.90;;;;;;5055390;28;19912;-86
2021/12/15 09:41:14;;;;;;;;;;;4.00;99.90;;;;;;5057367;28;19912;-87
2021/12/15 09:43:41;;;;;;;;;;;4.00;99.90;;;;;;5075612;28;19916;-87
2021/12/15 09:46:25;;;;;;;;;;;4.00;99.90;;;;;;5056801;28;19946;-86
2021/12/15 10:05:29;;;;;;;;;;;4.10;99.90;;;;;;5042620;28;19916;-88
2021/12/15 10:18:18;;;;;;;;;;;3.80;99.90;;;;;;5053673;28;19916;-88
2021/12/15 10:20:44;;;;;;;;;;;3.90;99.90;;;;;;5053441;28;19908;-89
2021/12/15 10:23:12;;;;;;;;;;;4.00;99.90;;;;;;5054449;28;19911;-89
2021/12/15 10:25:43;;;;;;;;;;;4.10;99.90;;;;;;5054400;28;20360;-90
2021/12/15 10:28:13;;;;;;;;;;;4.20;99.90;;;;;;5052920;28;20359;-88
2021/12/15 10:30:39;;;;;;;;;;;4.20;99.90;;;;;;5036032;28;19916;-87
2021/12/15 10:33:15;;;;;;;;;;;4.20;99.90;;;;;;5053152;28;19905;-88
2021/12/15 10:35:42;;;;;;;;;;;4.10;99.90;;;;;;5054795;28;19928;-87
2021/12/15 10:38:11;;;;;;;;;;;4.00;99.90;;;;;;5053221;28;20364;-87
2021/12/15 10:40:55;;;;;;;;;;;4.00;99.90;;;;;;5052945;28;19915;-87
2021/12/15 10:43:22;;;;;;;;;;;4.10;99.90;;;;;;5053074;28;20375;-90
2021/12/15 10:45:50;;;;;;;;;;;4.30;99.90;;;;;;5056323;28;19917;-88
2021/12/15 10:48:24;;;;;;;;;;;4.50;99.90;;;;;;5056158;28;19940;-88
2021/12/15 10:50:49;;;;;;;;;;;4.40;99.90;;;;;;5033351;28;19912;-87
2021/12/15 10:53:28;;;;;;;;;;;4.50;99.90;;;;;;5057513;28;19954;-88
2021/12/15 10:55:53;;;;;;;;;;;4.40;99.90;;;;;;5056724;28;20352;-88
2021/12/15 10:58:31;;;;;;;;;;;4.30;99.90;;;;;;5053750;28;19916;-89
2021/12/15 11:00:56;;;;;;;;;;;4.20;99.90;;;;;;5057027;28;19917;-88
2021/12/15 11:03:30;;;;;;;;;;;4.10;99.90;;;;;;5063253;28;19913;-89
2021/12/15 11:05:56;;;;;;;;;;;4.20;99.90;;;;;;5063957;28;19905;-88
2021/12/15 11:08:21;;;;;;;;;;;4.50;99.90;;;;;;5059325;28;19913;-87
2021/12/15 11:10:47;;;;;;;;;;;4.80;99.90;;;;;;5054305;28;19912;-87
2021/12/15 11:13:14;;;;;;;;;;;4.80;99.90;;;;;;5049753;28;19909;-90
2021/12/15 11:15:45;;;;;;;;;;;4.70;99.90;;;;;;5035070;28;19912;-88
2021/12/15 11:18:14;;;;;;;;;;;4.60;99.90;;;;;;5020164;28;19920;-88
2021/12/15 11:20:44;;;;;;;;;;;4.50;99.90;;;;;;5053324;28;20022;-89
2021/12/15 11:23:19;;;;;;;;;;;4.20;99.90;;;;;;5059443;28;19909;-90
2021/12/15 11:25:55;;;;;;;;;;;4.30;99.90;;;;;;5054353;28;20347;-89
2021/12/15 11:28:32;;;;;;;;;;;4.30;99.90;;;;;;5052180;28;20367;-88
2021/12/15 11:30:57;;;;;;;;;;;4.30;99.90;;;;;;5052071;28;19924;-85
2021/12/15 11:33:28;;;;;;;;;;;4.20;99.90;;;;;;5047948;28;19909;-88
2021/12/15 11:36:14;;;;;;;;;;;4.00;99.90;;;;;;5037935;28;19913;-86
2021/12/15 11:38:42;;;;;;;;;;;4.10;99.90;;;;;;5047728;28;19913;-86
2021/12/15 11:41:07;;;;;;;;;;;4.00;99.90;;;;;;5053180;28;19947;-89
2021/12/15 11:43:56;;;;;;;;;;;4.00;99.90;;;;;;5044211;28;19912;-86
2021/12/15 11:46:25;;;;;;;;;;;3.80;99.90;;;;;;5043961;28;20003;-86
2021/12/15 11:48:55;;;;;;;;;;;3.80;99.90;;;;;;5052557;28;19927;-89
2021/12/15 11:51:26;;;;;;;;;;;4.00;99.90;;;;;;5052097;28;19908;-88
2021/12/15 11:53:51;;;;;;;;;;;4.20;99.90;;;;;;5051992;28;20314;-87
2021/12/15 11:56:19;;;;;;;;;;;4.30;99.90;;;;;;5053739;28;19949;-87
2021/12/15 11:58:45;;;;;;;;;;;4.40;99.90;;;;;;5053697;28;19909;-88
2021/12/15 12:01:31;;;;;;;;;;;4.30;99.90;;;;;;5045673;28;20031;-89
2021/12/15 12:04:10;;;;;;;;;;;4.30;99.90;;;;;;5052260;28;19912;-89
2021/12/15 12:06:36;;;;;;;;;;;4.20;99.90;;;;;;5053695;28;19909;-88
2021/12/15 12:09:02;;;;;;;;;;;4.10;99.90;;;;;;5052442;28;19905;-87
2021/12/15 12:11:29;;;;;;;;;;;4.10;99.90;;;;;;5056277;28;20367;-90
2021/12/15 12:13:59;;;;;;;;;;;4.20;99.90;;;;;;5039606;28;19915;-87
2021/12/15 12:16:25;;;;;;;;;;;4.10;99.90;;;;;;5056004;28;19995;-90
2021/12/15 12:18:52;;;;;;;;;;;4.20;99.90;;;;;;5035450;28;19959;-86
2021/12/15 12:21:17;;;;;;;;;;;4.30;99.90;;;;;;5056397;28;20303;-89
2021/12/15 12:23:46;;;;;;;;;;;4.50;99.90;;;;;;5056090;28;19912;-91
2021/12/15 12:26:12;;;;;;;;;;;4.50;99.90;;;;;;5039977;28;19913;-89
2021/12/15 12:28:40;;;;;;;;;;;4.30;99.90;;;;;;5036021;28;19909;-87
2021/12/15 12:31:08;;;;;;;;;;;4.10;99.90;;;;;;5018733;28;19917;-87
2021/12/15 12:33:34;;;;;;;;;;;4.10;99.90;;;;;;5035754;28;19912;-87
2021/12/15 12:36:02;;;;;;;;;;;4.30;99.90;;;;;;5039988;28;19920;-87
2021/12/15 12:38:28;;;;;;;;;;;4.30;99.90;;;;;;5055780;28;19915;-86
2021/12/15 12:40:53;;;;;;;;;;;4.50;99.90;;;;;;5039460;28;20344;-89
2021/12/15 12:43:21;;;;;;;;;;;4.50;99.90;;;;;;5057362;28;19905;-90
2021/12/15 12:45:56;;;;;;;;;;;4.50;99.90;;;;;;5039284;28;20007;-87
2021/12/15 12:59:24;;;;;;;;;;;4.10;99.90;;;;;;5059060;28;19934;-89
2021/12/15 13:01:49;;;;;;;;;;;4.10;99.90;;;;;;5057637;28;20461;-88
2021/12/15 13:04:15;;;;;;;;;;;4.20;99.90;;;;;;5062808;28;19940;-89
2021/12/15 13:06:42;;;;;;;;;;;4.10;99.90;;;;;;5068191;28;19912;-89
2021/12/15 13:09:10;;;;;;;;;;;4.10;99.90;;;;;;5067119;28;20464;-89
2021/12/15 13:11:39;;;;;;;;;;;4.20;99.90;;;;;;5068055;28;19912;-87
2021/12/15 13:14:32;;;;;;;;;;;4.20;99.90;;;;;;5059332;28;19935;-87
2021/12/15 13:17:00;;;;;;;;;;;4.00;99.90;;;;;;5056534;28;19912;-87
2021/12/15 13:19:25;;;;;;;;;;;3.90;99.90;;;;;;5057766;28;19916;-88
2021/12/15 13:28:41;;;;;;;;;;;4.20;99.90;;;;;;5064478;28;20368;-87
2021/12/15 13:30:05;;;;;;;;;;;4.40;99.90;;;;;;5054956;28;19920;-88
2021/12/15 13:32:36;;;;;;;;;;;4.30;99.90;;;;;;5055018;28;19909;-87
2021/12/15 13:35:01;;;;;;;;;;;4.00;99.90;;;;;;5054480;28;19909;-87
2021/12/15 13:37:47;;;;;;;;;;;3.80;99.90;;;;;;5054435;28;19981;-88
2021/12/15 13:40:12;;;;;;;;;;;3.80;99.90;;;;;;5055065;28;19944;-88
2021/12/15 13:42:52;;;;;;;;;;;3.80;99.90;;;;;;5038162;28;19913;-88
2021/12/15 13:45:28;;;;;;;;;;;3.90;99.90;;;;;;5055462;28;19920;-87
2021/12/15 13:47:55;;;;;;;;;;;4.00;99.90;;;;;;5038031;28;20047;-87
2021/12/15 13:50:21;;;;;;;;;;;3.90;99.90;;;;;;5054436;28;20360;-88
2021/12/15 13:52:53;;;;;;;;;;;3.80;99.90;;;;;;5055495;28;19908;-86
2021/12/15 13:55:28;;;;;;;;;;;3.80;99.90;;;;;;5054086;28;19904;-89
2021/12/15 13:58:09;;;;;;;;;;;3.70;99.90;;;;;;5053864;28;19912;-89
2021/12/15 14:00:49;;;;;;;;;;;3.60;99.90;;;;;;5055761;28;25021;-89
2021/12/15 14:03:16;;;;;;;;;;;3.50;99.90;;;;;;5073635;28;19909;-87
2021/12/15 14:05:51;;;;;;;;;;;3.60;99.90;;;;;;5075079;28;19993;-88
2021/12/15 14:08:18;;;;;;;;;;;3.60;99.90;;;;;;5072245;28;19910;-89
2021/12/15 14:10:47;;;;;;;;;;;3.80;99.90;;;;;;5056802;28;19956;-86
2021/12/15 14:13:13;;;;;;;;;;;3.80;99.90;;;;;;5074661;28;20370;-85
2021/12/15 14:15:40;;;;;;;;;;;3.80;99.90;;;;;;5056526;28;19909;-89
2021/12/15 14:18:25;;;;;;;;;;;3.50;99.90;;;;;;5057028;28;19998;-86
2021/12/15 14:20:53;;;;;;;;;;;3.50;99.90;;;;;;5056895;28;19908;-87
2021/12/15 14:23:21;;;;;;;;;;;3.50;99.90;;;;;;5056138;28;19909;-87
2021/12/15 14:25:47;;;;;;;;;;;3.50;99.90;;;;;;5052942;28;19908;-88
2021/12/15 14:28:15;;;;;;;;;;;3.50;99.90;;;;;;5037089;28;19916;-87
2021/12/15 14:30:43;;;;;;;;;;;3.50;99.90;;;;;;5056321;28;19955;-87
2021/12/15 14:33:19;;;;;;;;;;;3.60;99.90;;;;;;5056674;28;19904;-87
2021/12/15 14:35:45;;;;;;;;;;;3.60;99.90;;;;;;5058892;28;19912;-88
2021/12/15 14:38:10;;;;;;;;;;;3.60;99.90;;;;;;5074596;28;19915;-86
2021/12/15 14:40:36;;;;;;;;;;;3.50;99.90;;;;;;5056574;28;20329;-88
2021/12/15 14:43:02;;;;;;;;;;;3.40;99.90;;;;;;5057050;28;20322;-89
2021/12/15 14:45:27;;;;;;;;;;;3.40;99.90;;;;;;5056614;28;19954;-87
2021/12/15 14:47:53;;;;;;;;;;;3.30;99.90;;;;;;5039525;28;19912;-87
2021/12/15 14:50:19;;;;;;;;;;;3.40;99.90;;;;;;5047848;28;20007;-86
2021/12/15 14:52:49;;;;;;;;;;;3.50;99.90;;;;;;5056320;28;19957;-87
2021/12/15 14:55:17;;;;;;;;;;;3.50;99.90;;;;;;5055998;28;20378;-86
2021/12/15 14:57:42;;;;;;;;;;;3.60;99.90;;;;;;5044722;28;19909;-86
2021/12/15 15:00:24;;;;;;;;;;;3.50;99.90;;;;;;5036062;28;20363;-88
2021/12/15 15:02:58;;;;;;;;;;;3.30;99.90;;;;;;5045535;28;20279;-86
2021/12/15 15:05:25;;;;;;;;;;;3.20;99.90;;;;;;5055994;28;20304;-88
2021/12/15 15:07:52;;;;;;;;;;;3.40;99.90;;;;;;5055828;28;19908;-89
2021/12/15 15:10:20;;;;;;;;;;;3.30;99.90;;;;;;5055714;28;19969;-85
2021/12/15 15:12:46;;;;;;;;;;;3.40;99.90;;;;;;5055856;28;19945;-88
2021/12/15 15:15:13;;;;;;;;;;;3.40;99.90;;;;;;5057124;28;20283;-88
2021/12/15 15:17:53;;;;;;;;;;;3.30;99.90;;;;;;5056810;28;19911;-88
2021/12/15 15:20:21;;;;;;;;;;;3.30;99.90;;;;;;5074171;28;19908;-88
2021/12/15 15:22:47;;;;;;;;;;;3.20;99.90;;;;;;5039017;28;19918;-89
2021/12/15 15:25:15;;;;;;;;;;;3.10;99.90;;;;;;5055599;28;19999;-87
2021/12/15 15:27:42;;;;;;;;;;;3.00;99.90;;;;;;5072535;28;19913;-87
2021/12/15 15:30:13;;;;;;;;;;;3.00;99.90;;;;;;5055532;28;19912;-85
2021/12/15 15:32:40;;;;;;;;;;;3.10;99.90;;;;;;5047445;28;19924;-85
2021/12/15 15:35:08;;;;;;;;;;;3.10;99.90;;;;;;5019713;28;19919;-87
2021/12/15 15:37:34;;;;;;;;;;;3.20;99.90;;;;;;5023295;28;19938;-86
2021/12/15 15:40:06;;;;;;;;;;;3.10;99.90;;;;;;5069060;28;19908;-88
2021/12/15 15:42:32;;;;;;;;;;;3.20;99.90;;;;;;5074202;28;19908;-88
2021/12/15 15:44:57;;;;;;;;;;;3.20;99.90;;;;;;5064653;28;19923;-87
2021/12/15 15:47:23;;;;;;;;;;;3.20;99.90;;;;;;5078518;28;19912;-87
2021/12/15 15:49:50;;;;;;;;;;;3.10;99.90;;;;;;5077512;28;19912;-88
2021/12/15 15:52:16;;;;;;;;;;;2.90;99.90;;;;;;5059398;28;19904;-87
2021/12/15 15:54:41;;;;;;;;;;;2.80;99.90;;;;;;5059287;28;19911;-86
2021/12/15 15:57:07;;;;;;;;;;;3.00;99.90;;;;;;5059505;28;20276;-87
2021/12/15 15:59:33;;;;;;;;;;;3.10;99.90;;;;;;5077509;28;19905;-87
2021/12/15 16:02:00;;;;;;;;;;;3.20;99.90;;;;;;5059065;28;19921;-89